createdAt,value
2022-10-14T00:00:04.919Z,100762.02
2022-10-14T00:01:17.782Z,100763.72
2022-10-14T00:02:19.852Z,100753.31
2022-10-14T00:03:21.818Z,100760.22
2022-10-14T00:04:23.574Z,100759.27
2022-10-14T00:05:25.415Z,100755.78
2022-10-14T00:06:30.342Z,100758.33
2022-10-14T00:07:32.517Z,100758.24
2022-10-14T00:08:34.407Z,100758.24
2022-10-14T00:09:36.690Z,100755.53
2022-10-14T00:10:40.272Z,100759.84
2022-10-14T00:11:41.923Z,100753.88
2022-10-14T00:12:43.948Z,100757.38
2022-10-14T00:13:46.182Z,100758.24
2022-10-14T00:14:48.337Z,100756.42
2022-10-14T00:15:50.693Z,100754.77
2022-10-14T00:16:53.846Z,100755.66
2022-10-14T00:17:55.672Z,100756.61
2022-10-14T00:18:58.192Z,100748.94
2022-10-14T00:20:00.347Z,100757.67
2022-10-14T00:21:02.291Z,100755.91
2022-10-14T00:22:04.384Z,100755.91
2022-10-14T00:23:06.655Z,100749.81
2022-10-14T00:24:10.758Z,100756.67
2022-10-14T00:25:12.716Z,100747.83
2022-10-14T00:26:21.260Z,100750.45
2022-10-14T00:27:23.893Z,100748.80
2022-10-14T00:28:26.282Z,100753.23
2022-10-14T00:29:28.279Z,100747.27
2022-10-14T00:30:30.260Z,100748.10
2022-10-14T00:31:33.634Z,100745.44
2022-10-14T00:32:35.377Z,100746.20
2022-10-14T00:33:37.219Z,100753.93
2022-10-14T00:34:39.130Z,100753.03
2022-10-14T00:35:41.097Z,100746.01
2022-10-14T00:36:43.556Z,100745.05
2022-10-14T00:37:47.565Z,100752.03
2022-10-14T00:38:50.554Z,100749.42
2022-10-14T00:39:56.773Z,100751.13
2022-10-14T00:40:58.350Z,100746.77
2022-10-14T00:42:00.160Z,100748.59
2022-10-14T00:43:02.433Z,100741.67
2022-10-14T00:44:16.984Z,100748.59
2022-10-14T00:45:22.660Z,100744.22
2022-10-14T00:46:27.657Z,100740.72
2022-10-14T00:47:32.651Z,100740.72
2022-10-14T00:48:35.343Z,100744.16
2022-10-14T00:49:40.635Z,100746.01
2022-10-14T00:50:44.807Z,100747.72
2022-10-14T00:51:50.395Z,100745.17
2022-10-14T00:52:52.483Z,100746.95
2022-10-14T00:53:55.524Z,100744.41
2022-10-14T00:56:23.354Z,100745.73
2022-10-14T00:57:27.419Z,100748.66
2022-10-14T00:58:30.147Z,100740.91
2022-10-14T00:59:34.313Z,100744.22
2022-10-14T01:00:37.341Z,100741.53
2022-10-14T01:01:39.996Z,100740.60
2022-10-14T01:02:42.284Z,100738.11
2022-10-14T01:03:44.549Z,100735.51
2022-10-14T01:04:46.512Z,100736.46
2022-10-14T01:05:55.232Z,100740.04
2022-10-14T01:07:22.089Z,100727.08
2022-10-14T01:08:37.085Z,100736.66
2022-10-14T01:09:42.553Z,100735.78
2022-10-14T01:10:49.260Z,100730.58
2022-10-14T01:12:28.065Z,100732.23
2022-10-14T01:13:32.962Z,100731.39
2022-10-14T01:14:57.147Z,100729.69
2022-10-14T01:16:26.290Z,100731.28
2022-10-14T01:18:05.657Z,100732.98
2022-10-14T01:19:40.638Z,100729.60
2022-10-14T01:21:09.057Z,100730.50
2022-10-14T01:22:26.267Z,100729.69
2022-10-14T01:23:43.878Z,100727.14
2022-10-14T01:24:59.110Z,100725.37
2022-10-14T01:26:10.887Z,100727.36
2022-10-14T01:27:44.164Z,100724.75
2022-10-14T01:29:01.883Z,100727.27
2022-10-14T01:30:22.811Z,100720.62
2022-10-14T01:31:29.179Z,100724.92
2022-10-14T01:32:37.737Z,100727.73
2022-10-14T01:33:45.637Z,100728.55
2022-10-14T01:34:51.269Z,100724.05
2022-10-14T01:36:25.780Z,100727.36
2022-10-14T01:37:30.835Z,100717.75
2022-10-14T01:38:45.624Z,100718.57
2022-10-14T01:39:52.073Z,100716.86
2022-10-14T01:41:09.222Z,100722.26
2022-10-14T01:42:15.449Z,100720.50
2022-10-14T01:43:22.089Z,100722.83
2022-10-14T01:44:26.948Z,100720.28
2022-10-14T01:45:32.552Z,100721.37
2022-10-14T01:46:37.529Z,100717.25
2022-10-14T01:47:41.477Z,100716.38
2022-10-14T01:48:50.118Z,100720.06
2022-10-14T01:49:55.649Z,100712.42
2022-10-14T01:51:01.288Z,100720.93
2022-10-14T01:52:06.800Z,100717.52
2022-10-14T01:53:15.347Z,100713.94
2022-10-14T01:54:20.904Z,100713.94
2022-10-14T01:55:26.409Z,100716.48
2022-10-14T01:56:35.013Z,100720.82
2022-10-14T01:57:39.892Z,100711.34
2022-10-14T01:58:46.116Z,100715.80
2022-10-14T01:59:49.775Z,100721.87
2022-10-14T02:00:52.723Z,100710.59
2022-10-14T02:01:54.622Z,100718.33
2022-10-14T02:02:56.400Z,100712.50
2022-10-14T02:03:58.266Z,100716.44
2022-10-14T02:05:06.297Z,100714.76
2022-10-14T02:06:28.206Z,100720.73
2022-10-14T02:07:39.838Z,100715.36
2022-10-14T02:09:09.706Z,100708.50
2022-10-14T02:10:21.423Z,100711.97
2022-10-14T02:11:23.861Z,100711.97
2022-10-14T02:12:34.109Z,100721.83
2022-10-14T02:13:45.438Z,100721.75
2022-10-14T02:15:07.675Z,100715.66
2022-10-14T02:16:19.552Z,100721.62
2022-10-14T02:17:31.472Z,100717.12
2022-10-14T02:18:43.745Z,100723.98
2022-10-14T02:19:55.014Z,100721.30
2022-10-14T02:21:13.203Z,100720.44
2022-10-14T02:22:22.143Z,100718.89
2022-10-14T02:23:34.241Z,100719.67
2022-10-14T02:24:42.624Z,100715.23
2022-10-14T02:25:47.476Z,100716.10
2022-10-14T02:26:52.258Z,100717.81
2022-10-14T02:27:57.185Z,100716.75
2022-10-14T02:29:01.290Z,100722.72
2022-10-14T02:30:04.299Z,100720.23
2022-10-14T02:31:11.459Z,100714.20
2022-10-14T02:32:19.359Z,100718.46
2022-10-14T02:33:25.302Z,100718.33
2022-10-14T02:34:27.748Z,100713.94
2022-10-14T02:35:30.784Z,100713.94
2022-10-14T02:36:33.755Z,100714.77
2022-10-14T02:37:40.145Z,100718.22
2022-10-14T02:38:43.307Z,100712.12
2022-10-14T02:39:57.370Z,100713.88
2022-10-14T02:41:03.575Z,100711.17
2022-10-14T02:42:05.940Z,100715.54
2022-10-14T02:43:11.131Z,100712.12
2022-10-14T02:44:13.020Z,100708.73
2022-10-14T02:45:15.701Z,100714.02
2022-10-14T02:46:21.571Z,100719.30
2022-10-14T02:47:24.352Z,100713.45
2022-10-14T02:48:26.952Z,100715.16
2022-10-14T02:49:29.929Z,100717.81
2022-10-14T02:50:32.952Z,100712.61
2022-10-14T02:51:35.303Z,100714.28
2022-10-14T02:52:37.533Z,100714.28
2022-10-14T02:53:39.342Z,100710.92
2022-10-14T02:54:41.174Z,100721.30
2022-10-14T02:55:42.906Z,100719.48
2022-10-14T02:56:45.921Z,100721.30
2022-10-14T02:57:48.079Z,100719.48
2022-10-14T02:58:49.837Z,100719.48
2022-10-14T02:59:52.305Z,100717.83
2022-10-14T03:00:54.401Z,100718.84
2022-10-14T03:01:56.613Z,100722.59
2022-10-14T03:02:58.802Z,100728.12
2022-10-14T03:04:01.917Z,100721.95
2022-10-14T03:05:04.666Z,100719.24
2022-10-14T03:06:07.082Z,100717.59
2022-10-14T03:07:09.608Z,100722.86
2022-10-14T03:08:13.622Z,100722.08
2022-10-14T03:09:15.875Z,100722.97
2022-10-14T03:10:19.344Z,100717.84
2022-10-14T03:11:21.643Z,100724.80
2022-10-14T03:12:25.709Z,100717.81
2022-10-14T03:13:29.177Z,100721.26
2022-10-14T03:14:30.977Z,100718.66
2022-10-14T03:15:33.545Z,100719.47
2022-10-14T03:16:35.601Z,100726.52
2022-10-14T03:17:38.331Z,100723.86
2022-10-14T03:18:40.731Z,100721.20
2022-10-14T03:19:44.576Z,100723.78
2022-10-14T03:20:48.585Z,100720.26
2022-10-14T03:21:52.397Z,100724.55
2022-10-14T03:22:55.344Z,100722.42
2022-10-14T03:23:57.761Z,100724.16
2022-10-14T03:25:01.956Z,100712.45
2022-10-14T03:26:20.920Z,100714.61
2022-10-14T03:27:22.974Z,100713.70
2022-10-14T03:28:26.669Z,100716.27
2022-10-14T03:30:43.973Z,100714.87
2022-10-14T03:31:47.769Z,100714.39
2022-10-14T03:33:03.556Z,100714.39
2022-10-14T03:34:13.216Z,100713.02
2022-10-14T03:35:15.845Z,100718.83
2022-10-14T03:36:20.395Z,100718.77
2022-10-14T03:37:24.249Z,100718.77
2022-10-14T03:38:28.478Z,100716.84
2022-10-14T03:39:32.117Z,100711.48
2022-10-14T03:40:36.261Z,100709.53
2022-10-14T03:41:40.216Z,100711.08
2022-10-14T03:42:42.356Z,100712.79
2022-10-14T03:43:44.326Z,100707.48
2022-10-14T03:44:46.700Z,100707.42
2022-10-14T03:45:56.098Z,100712.62
2022-10-14T03:46:59.175Z,100712.52
2022-10-14T03:48:03.247Z,100707.42
2022-10-14T03:49:05.032Z,100712.13
2022-10-14T03:50:08.473Z,100711.70
2022-10-14T03:51:15.150Z,100715.35
2022-10-14T03:52:17.248Z,100710.16
2022-10-14T03:53:19.163Z,100703.57
2022-10-14T03:54:21.256Z,100709.08
2022-10-14T03:55:24.363Z,100717.73
2022-10-14T03:56:26.630Z,100715.94
2022-10-14T03:57:29.810Z,100721.23
2022-10-14T03:58:33.941Z,100721.23
2022-10-14T03:59:38.356Z,100722.42
2022-10-14T04:00:41.745Z,100718.00
2022-10-14T04:02:03.786Z,100722.42
2022-10-14T04:03:06.454Z,100724.95
2022-10-14T04:04:11.547Z,100725.78
2022-10-14T04:05:13.956Z,100721.39
2022-10-14T04:06:16.944Z,100723.98
2022-10-14T04:07:19.227Z,100717.22
2022-10-14T04:08:24.200Z,100726.67
2022-10-14T04:09:28.501Z,100716.13
2022-10-14T04:10:31.102Z,100721.17
2022-10-14T04:11:33.587Z,100715.77
2022-10-14T04:12:37.719Z,100716.49
2022-10-14T04:13:41.465Z,100712.13
2022-10-14T04:14:43.508Z,100720.24
2022-10-14T04:15:46.198Z,100714.20
2022-10-14T04:16:56.914Z,100717.53
2022-10-14T04:17:59.263Z,100720.86
2022-10-14T04:19:01.185Z,100719.00
2022-10-14T04:20:04.008Z,100717.91
2022-10-14T04:21:09.799Z,100722.56
2022-10-14T04:22:11.636Z,100721.69
2022-10-14T04:23:14.885Z,100719.83
2022-10-14T04:24:18.442Z,100716.20
2022-10-14T04:25:25.837Z,100718.53
2022-10-14T04:26:29.704Z,100714.20
2022-10-14T04:27:33.219Z,100714.20
2022-10-14T04:28:37.852Z,100720.86
2022-10-14T04:29:41.787Z,100720.70
2022-10-14T04:30:46.376Z,100719.30
2022-10-14T04:31:50.549Z,100716.76
2022-10-14T04:32:52.510Z,100722.93
2022-10-14T04:33:54.372Z,100715.98
2022-10-14T04:34:58.159Z,100715.98
2022-10-14T04:36:03.026Z,100710.84
2022-10-14T04:37:06.872Z,100707.67
2022-10-14T04:38:26.265Z,100717.47
2022-10-14T04:39:30.531Z,100707.97
2022-10-14T04:40:33.031Z,100715.75
2022-10-14T04:41:35.851Z,100720.12
2022-10-14T04:42:37.705Z,100724.33
2022-10-14T04:43:40.778Z,100724.95
2022-10-14T04:44:44.729Z,100724.95
2022-10-14T04:45:49.528Z,100731.71
2022-10-14T04:46:53.936Z,100716.80
2022-10-14T04:47:57.617Z,100726.06
2022-10-14T04:48:59.850Z,100723.30
2022-10-14T04:50:04.780Z,100722.26
2022-10-14T04:51:06.730Z,100717.16
2022-10-14T04:52:10.667Z,100719.64
2022-10-14T04:53:15.345Z,100722.09
2022-10-14T04:54:20.186Z,100723.24
2022-10-14T04:55:24.150Z,100717.38
2022-10-14T04:56:26.852Z,100720.80
2022-10-14T04:57:31.094Z,100727.55
2022-10-14T04:58:33.038Z,100720.55
2022-10-14T04:59:35.236Z,100724.91
2022-10-14T05:00:55.880Z,100725.68
2022-10-14T05:02:02.836Z,100719.98
2022-10-14T05:03:13.489Z,100725.39
2022-10-14T05:04:15.481Z,100721.11
2022-10-14T05:05:17.878Z,100721.02
2022-10-14T05:06:21.727Z,100717.43
2022-10-14T05:07:25.644Z,100719.14
2022-10-14T05:08:29.366Z,100721.69
2022-10-14T05:09:33.064Z,100719.00
2022-10-14T05:10:34.899Z,100726.73
2022-10-14T05:11:38.379Z,100731.98
2022-10-14T05:12:41.633Z,100726.00
2022-10-14T05:13:44.033Z,100731.86
2022-10-14T05:14:46.102Z,100729.16
2022-10-14T05:15:50.580Z,100731.54
2022-10-14T05:16:54.335Z,100729.89
2022-10-14T05:17:58.309Z,100734.20
2022-10-14T05:19:02.299Z,100732.33
2022-10-14T05:20:06.379Z,100727.13
2022-10-14T05:21:09.666Z,100727.70
2022-10-14T05:22:23.093Z,100736.39
2022-10-14T05:23:26.028Z,100731.86
2022-10-14T05:24:29.124Z,100733.42
2022-10-14T05:25:31.375Z,100729.05
2022-10-14T05:26:33.875Z,100735.91
2022-10-14T05:27:37.736Z,100740.06
2022-10-14T05:28:39.990Z,100744.38
2022-10-14T05:29:42.541Z,100740.77
2022-10-14T05:30:45.316Z,100750.13
2022-10-14T05:31:47.789Z,100745.59
2022-10-14T05:33:00.537Z,100747.20
2022-10-14T05:34:03.607Z,100751.56
2022-10-14T05:35:05.948Z,100757.59
2022-10-14T05:36:10.658Z,100746.97
2022-10-14T05:37:12.944Z,100746.97
2022-10-14T05:38:17.020Z,100745.25
2022-10-14T05:39:19.426Z,100748.84
2022-10-14T05:40:21.850Z,100745.35
2022-10-14T05:41:25.150Z,100745.25
2022-10-14T05:42:27.147Z,100745.02
2022-10-14T05:43:32.634Z,100745.78
2022-10-14T05:44:35.211Z,100753.16
2022-10-14T05:45:37.750Z,100755.75
2022-10-14T05:46:39.614Z,100758.52
2022-10-14T05:47:43.641Z,100760.18
2022-10-14T05:48:47.923Z,100762.63
2022-10-14T05:49:50.356Z,100760.85
2022-10-14T05:50:52.591Z,100755.58
2022-10-14T05:51:55.712Z,100757.19
2022-10-14T05:52:59.514Z,100763.11
2022-10-14T05:54:03.812Z,100759.50
2022-10-14T05:56:29.119Z,100767.00
2022-10-14T05:57:32.407Z,100760.84
2022-10-14T05:58:35.036Z,100755.02
2022-10-14T05:59:37.066Z,100763.59
2022-10-14T06:00:38.971Z,100761.88
2022-10-14T06:01:42.567Z,100758.48
2022-10-14T06:02:44.575Z,100758.02
2022-10-14T06:03:52.643Z,100762.33
2022-10-14T06:04:54.587Z,100761.27
2022-10-14T06:05:58.696Z,100765.54
2022-10-14T06:07:00.831Z,100761.44
2022-10-14T06:08:03.852Z,100760.51
2022-10-14T06:09:11.417Z,100761.45
2022-10-14T06:10:12.675Z,100763.94
2022-10-14T06:11:14.687Z,100766.31
2022-10-14T06:12:16.817Z,100768.02
2022-10-14T06:13:19.715Z,100766.79
2022-10-14T06:14:22.649Z,100770.28
2022-10-14T06:15:26.959Z,100765.08
2022-10-14T06:16:29.458Z,100769.34
2022-10-14T06:17:31.578Z,100770.11
2022-10-14T06:18:35.066Z,100768.32
2022-10-14T06:19:36.965Z,100770.00
2022-10-14T06:20:38.944Z,100768.64
2022-10-14T06:21:40.862Z,100765.84
2022-10-14T06:22:42.607Z,100769.11
2022-10-14T06:23:44.234Z,100769.85
2022-10-14T06:24:45.958Z,100769.62
2022-10-14T06:25:47.592Z,100772.27
2022-10-14T06:26:49.537Z,100772.98
2022-10-14T06:27:51.486Z,100761.59
2022-10-14T06:28:54.306Z,100761.59
2022-10-14T06:29:56.394Z,100770.36
2022-10-14T06:30:58.277Z,100771.94
2022-10-14T06:32:01.123Z,100772.66
2022-10-14T06:33:03.617Z,100765.74
2022-10-14T06:34:06.366Z,100769.47
2022-10-14T06:35:10.641Z,100776.91
2022-10-14T06:36:14.818Z,100773.24
2022-10-14T06:37:17.720Z,100777.86
2022-10-14T06:38:19.480Z,100776.73
2022-10-14T06:39:21.607Z,100773.24
2022-10-14T06:40:23.963Z,100773.05
2022-10-14T06:41:25.795Z,100773.75
2022-10-14T06:42:27.966Z,100764.09
2022-10-14T06:43:31.719Z,100772.80
2022-10-14T06:44:33.377Z,100764.86
2022-10-14T06:45:36.306Z,100770.25
2022-10-14T06:46:38.269Z,100767.41
2022-10-14T06:47:40.417Z,100764.61
2022-10-14T06:48:43.973Z,100764.61
2022-10-14T06:49:47.209Z,100773.75
2022-10-14T06:50:49.791Z,100772.94
2022-10-14T06:51:52.220Z,100774.81
2022-10-14T06:52:54.551Z,100765.13
2022-10-14T06:53:56.587Z,100770.45
2022-10-14T06:54:59.519Z,100773.05
2022-10-14T06:56:04.313Z,100770.39
2022-10-14T06:57:06.657Z,100773.75
2022-10-14T06:58:08.451Z,100776.16
2022-10-14T06:59:13.918Z,100771.77
2022-10-14T07:00:17.272Z,100772.45
2022-10-14T07:01:19.097Z,100780.40
2022-10-14T07:02:21.392Z,100778.69
2022-10-14T07:03:23.571Z,100776.09
2022-10-14T07:04:25.358Z,100779.58
2022-10-14T07:05:27.711Z,100778.06
2022-10-14T07:06:29.814Z,100771.40
2022-10-14T07:07:32.154Z,100770.09
2022-10-14T07:08:34.543Z,100771.95
2022-10-14T07:09:36.527Z,100774.71
2022-10-14T07:10:39.654Z,100775.13
2022-10-14T07:11:41.515Z,100777.91
2022-10-14T07:12:43.667Z,100768.32
2022-10-14T07:13:45.910Z,100768.32
2022-10-14T07:14:47.708Z,100778.57
2022-10-14T07:15:50.161Z,100782.94
2022-10-14T07:16:53.112Z,100780.26
2022-10-14T07:17:55.354Z,100779.49
2022-10-14T07:18:57.220Z,100775.20
2022-10-14T07:19:59.170Z,100782.22
2022-10-14T07:21:04.267Z,100777.73
2022-10-14T07:22:06.266Z,100774.44
2022-10-14T07:23:08.063Z,100757.22
2022-10-14T07:24:10.419Z,100757.22
2022-10-14T07:25:13.356Z,100773.52
2022-10-14T07:26:15.222Z,100769.28
2022-10-14T07:27:17.895Z,100769.41
2022-10-14T07:28:20.084Z,100769.47
2022-10-14T07:29:22.517Z,100768.57
2022-10-14T07:30:25.043Z,100768.02
2022-10-14T07:31:28.185Z,100767.08
2022-10-14T07:32:30.083Z,100765.22
2022-10-14T07:33:34.490Z,100763.37
2022-10-14T07:34:36.918Z,100768.45
2022-10-14T07:35:38.816Z,100765.61
2022-10-14T07:36:41.225Z,100761.43
2022-10-14T07:37:43.070Z,100768.14
2022-10-14T07:38:45.593Z,100766.96
2022-10-14T07:39:47.880Z,100763.72
2022-10-14T07:41:02.584Z,100773.89
2022-10-14T07:42:04.703Z,100767.27
2022-10-14T07:43:06.525Z,100760.77
2022-10-14T07:44:08.446Z,100758.77
2022-10-14T07:45:11.397Z,100767.28
2022-10-14T07:46:14.872Z,100765.57
2022-10-14T07:47:16.808Z,100767.89
2022-10-14T07:48:27.253Z,100768.91
2022-10-14T07:49:22.968Z,100771.10
2022-10-14T07:50:24.928Z,100763.28
2022-10-14T07:51:27.940Z,100762.47
2022-10-14T07:52:29.988Z,100762.47
2022-10-14T07:53:32.120Z,100766.70
2022-10-14T07:54:34.625Z,100766.70
2022-10-14T07:55:40.141Z,100769.94
2022-10-14T07:56:43.448Z,100770.83
2022-10-14T07:57:45.490Z,100771.58
2022-10-14T07:58:48.045Z,100772.39
2022-10-14T07:59:49.839Z,100775.84
2022-10-14T08:00:55.156Z,100778.80
2022-10-14T08:01:57.179Z,100771.79
2022-10-14T08:02:59.622Z,100777.00
2022-10-14T08:04:01.632Z,100774.12
2022-10-14T08:05:25.432Z,100772.29
2022-10-14T08:06:08.847Z,100769.39
2022-10-14T08:07:10.974Z,100772.54
2022-10-14T08:08:14.422Z,100770.53
2022-10-14T08:09:17.264Z,100769.36
2022-10-14T08:10:19.862Z,100776.94
2022-10-14T08:11:24.563Z,100769.62
2022-10-14T08:12:27.417Z,100766.41
2022-10-14T08:13:29.982Z,100764.16
2022-10-14T08:14:32.381Z,100766.64
2022-10-14T08:15:36.809Z,100765.27
2022-10-14T08:16:40.000Z,100766.41
2022-10-14T08:17:42.586Z,100761.36
2022-10-14T08:18:47.199Z,100760.56
2022-10-14T08:19:50.624Z,100759.25
2022-10-14T08:20:53.290Z,100759.15
2022-10-14T08:21:55.492Z,100763.33
2022-10-14T08:22:57.422Z,100759.58
2022-10-14T08:23:59.161Z,100761.70
2022-10-14T08:25:01.422Z,100758.08
2022-10-14T08:26:03.917Z,100762.81
2022-10-14T08:27:06.791Z,100759.89
2022-10-14T08:28:11.053Z,100765.01
2022-10-14T08:29:13.107Z,100750.91
2022-10-14T08:30:15.190Z,100763.61
2022-10-14T08:31:17.991Z,100764.81
2022-10-14T08:32:20.776Z,100754.41
2022-10-14T08:33:23.504Z,100759.52
2022-10-14T08:34:25.381Z,100759.15
2022-10-14T08:35:27.419Z,100754.72
2022-10-14T08:36:31.418Z,100765.83
2022-10-14T08:37:33.367Z,100764.03
2022-10-14T08:38:36.668Z,100763.06
2022-10-14T08:39:38.534Z,100763.06
2022-10-14T08:40:59.373Z,100763.47
2022-10-14T08:42:11.401Z,100760.61
2022-10-14T08:43:23.402Z,100762.20
2022-10-14T08:44:29.307Z,100758.56
2022-10-14T08:45:40.494Z,100757.83
2022-10-14T08:46:51.961Z,100757.52
2022-10-14T08:47:56.398Z,100757.83
2022-10-14T08:49:24.132Z,100761.59
2022-10-14T08:50:31.036Z,100763.55
2022-10-14T08:51:33.913Z,100762.19
2022-10-14T08:53:55.233Z,100761.28
2022-10-14T08:55:03.869Z,100764.23
2022-10-14T08:56:09.284Z,100754.48
2022-10-14T08:57:18.972Z,100757.20
2022-10-14T08:58:40.449Z,100755.50
2022-10-14T08:59:43.023Z,100755.64
2022-10-14T09:00:48.587Z,100759.15
2022-10-14T09:01:57.202Z,100757.31
2022-10-14T09:03:02.753Z,100758.11
2022-10-14T09:04:08.989Z,100759.02
2022-10-14T09:05:20.937Z,100756.08
2022-10-14T09:06:30.101Z,100755.97
2022-10-14T09:07:34.497Z,100756.08
2022-10-14T09:08:46.013Z,100756.08
2022-10-14T09:09:51.481Z,100759.95
2022-10-14T09:11:12.841Z,100756.51
2022-10-14T09:21:03.496Z,100756.64
2022-10-14T09:22:09.472Z,100753.80
2022-10-14T09:23:21.106Z,100747.97
2022-10-14T09:24:27.238Z,100750.65
2022-10-14T09:25:33.738Z,100744.39
2022-10-14T09:26:42.477Z,100748.56
2022-10-14T09:27:44.270Z,100751.91
2022-10-14T09:28:46.823Z,100750.03
2022-10-14T09:29:55.720Z,100753.20
2022-10-14T09:30:57.786Z,100742.66
2022-10-14T09:32:03.350Z,100748.53
2022-10-14T09:33:08.419Z,100751.63
2022-10-14T09:34:13.923Z,100753.81
2022-10-14T09:35:25.853Z,100751.61
2022-10-14T09:36:28.564Z,100746.45
2022-10-14T09:37:55.410Z,100746.88
2022-10-14T09:39:05.382Z,100737.55
2022-10-14T09:40:15.988Z,100740.67
2022-10-14T09:41:27.909Z,100738.78
2022-10-14T09:42:43.470Z,100736.50
2022-10-14T09:44:20.481Z,100738.27
2022-10-14T09:45:27.866Z,100734.61
2022-10-14T09:46:34.506Z,100729.45
2022-10-14T09:47:45.169Z,100727.09
2022-10-14T09:48:51.781Z,100735.13
2022-10-14T09:49:55.609Z,100730.38
2022-10-14T09:51:03.683Z,100737.34
2022-10-14T09:52:07.121Z,100729.50
2022-10-14T09:54:59.890Z,100729.75
2022-10-14T09:56:06.261Z,100724.78
2022-10-14T09:57:11.819Z,100727.21
2022-10-14T09:58:17.930Z,100731.70
2022-10-14T09:59:22.086Z,100727.80
2022-10-14T10:00:27.736Z,100730.12
2022-10-14T10:01:33.710Z,100732.66
2022-10-14T10:02:42.219Z,100725.36
2022-10-14T10:03:45.368Z,100725.36
2022-10-14T10:04:49.396Z,100717.89
2022-10-14T10:06:04.106Z,100726.64
2022-10-14T10:07:09.170Z,100721.72
2022-10-14T10:08:18.196Z,100722.45
2022-10-14T10:09:20.439Z,100718.92
2022-10-14T10:10:22.341Z,100722.08
2022-10-14T10:11:34.673Z,100722.80
2022-10-14T10:12:37.033Z,100724.61
2022-10-14T10:13:46.497Z,100723.55
2022-10-14T10:15:04.275Z,100726.85
2022-10-14T10:16:10.400Z,100726.77
2022-10-14T10:17:18.278Z,100720.83
2022-10-14T10:18:23.213Z,100725.67
2022-10-14T10:19:40.138Z,100723.70
2022-10-14T10:20:44.369Z,100720.94
2022-10-14T10:21:46.624Z,100720.03
2022-10-14T10:22:48.539Z,100719.27
2022-10-14T10:23:57.013Z,100722.53
2022-10-14T10:25:09.554Z,100720.03
2022-10-14T10:26:18.193Z,100725.22
2022-10-14T10:27:27.769Z,100723.97
2022-10-14T10:28:30.062Z,100711.98
2022-10-14T10:29:33.104Z,100716.65
2022-10-14T10:30:44.616Z,100709.09
2022-10-14T10:31:53.451Z,100713.61
2022-10-14T10:33:23.504Z,100715.12
2022-10-14T10:34:44.495Z,100720.62
2022-10-14T10:35:53.739Z,100723.76
2022-10-14T10:37:01.967Z,100711.31
2022-10-14T10:38:37.581Z,100720.94
2022-10-14T10:40:13.800Z,100717.94
2022-10-14T10:41:23.283Z,100715.84
2022-10-14T10:42:50.480Z,100717.53
2022-10-14T10:44:14.773Z,100716.11
2022-10-14T10:45:39.037Z,100718.37
2022-10-14T10:46:56.374Z,100711.64
2022-10-14T10:48:04.916Z,100718.45
2022-10-14T10:49:29.033Z,100715.12
2022-10-14T10:50:50.410Z,100711.86
2022-10-14T10:52:15.072Z,100720.91
2022-10-14T10:53:26.006Z,100719.88
2022-10-14T10:54:44.936Z,100709.97
2022-10-14T10:56:08.856Z,100712.30
2022-10-14T10:57:25.819Z,100709.69
2022-10-14T10:58:43.768Z,100709.89
2022-10-14T11:01:25.082Z,100699.86
2022-10-14T11:02:42.789Z,100711.16
2022-10-14T11:04:00.121Z,100706.64
2022-10-14T11:05:21.979Z,100704.69
2022-10-14T11:06:31.163Z,100702.71
2022-10-14T11:07:44.004Z,100705.13
2022-10-14T11:08:58.476Z,100706.12
2022-10-14T11:10:07.006Z,100693.56
2022-10-14T11:11:30.916Z,100697.84
2022-10-14T11:12:45.151Z,100700.14
2022-10-14T11:14:06.382Z,100696.88
2022-10-14T11:15:32.401Z,100698.52
2022-10-14T11:16:41.261Z,100695.20
2022-10-14T11:17:52.588Z,100692.17
2022-10-14T11:19:14.834Z,100691.92
2022-10-14T11:20:21.013Z,100692.48
2022-10-14T11:21:44.589Z,100681.19
2022-10-14T11:23:18.432Z,100691.06
2022-10-14T11:24:42.235Z,100683.83
2022-10-14T11:25:56.625Z,100689.72
2022-10-14T11:27:08.873Z,100680.69
2022-10-14T11:28:14.459Z,100679.78
2022-10-14T11:29:21.935Z,100680.24
2022-10-14T11:30:36.091Z,100677.02
2022-10-14T11:31:42.156Z,100674.65
2022-10-14T11:32:56.631Z,100682.66
2022-10-14T11:34:25.360Z,100676.31
2022-10-14T11:35:49.329Z,100684.87
2022-10-14T11:36:56.392Z,100679.95
2022-10-14T11:38:17.464Z,100682.91
2022-10-14T11:39:35.864Z,100680.92
2022-10-14T11:41:03.232Z,100670.16
2022-10-14T11:42:26.349Z,100668.74
2022-10-14T11:44:04.154Z,100670.23
2022-10-14T11:45:28.821Z,100674.29
2022-10-14T11:46:37.192Z,100674.29
2022-10-14T11:47:42.715Z,100669.50
2022-10-14T11:48:59.210Z,100671.69
2022-10-14T11:50:09.404Z,100670.34
2022-10-14T11:51:35.879Z,100668.81
2022-10-14T11:52:41.713Z,100667.49
2022-10-14T11:54:18.939Z,100668.71
2022-10-14T11:55:23.858Z,100669.41
2022-10-14T11:56:52.338Z,100666.24
2022-10-14T11:58:23.087Z,100667.02
2022-10-14T11:59:40.547Z,100671.03
2022-10-14T12:00:46.108Z,100659.06
2022-10-14T12:01:52.186Z,100669.05
2022-10-14T12:03:16.227Z,100673.55
2022-10-14T12:04:33.496Z,100662.65
2022-10-14T12:05:50.912Z,100667.81
2022-10-14T12:06:56.547Z,100659.02
2022-10-14T12:08:18.981Z,100665.33
2022-10-14T12:09:46.571Z,100660.27
2022-10-14T12:11:04.448Z,100661.88
2022-10-14T12:12:09.979Z,100665.78
2022-10-14T12:13:15.336Z,100656.47
2022-10-14T12:14:29.554Z,100655.72
2022-10-14T12:15:32.813Z,100652.76
2022-10-14T12:16:39.436Z,100654.95
2022-10-14T12:17:47.918Z,100656.98
2022-10-14T12:18:56.147Z,100652.80
2022-10-14T12:20:03.547Z,100652.23
2022-10-14T12:21:33.141Z,100658.45
2022-10-14T12:22:35.865Z,100661.07
2022-10-14T12:23:41.349Z,100655.30
2022-10-14T12:24:52.417Z,100655.36
2022-10-14T12:26:03.349Z,100645.10
2022-10-14T12:27:10.820Z,100653.97
2022-10-14T12:28:16.314Z,100653.91
2022-10-14T12:29:24.591Z,100650.75
2022-10-14T12:30:40.644Z,100652.72
2022-10-14T12:31:49.603Z,100647.25
2022-10-14T12:33:07.406Z,100654.24
2022-10-14T12:34:16.648Z,100641.65
2022-10-14T12:35:50.576Z,100641.48
2022-10-14T12:36:54.307Z,100643.92
2022-10-14T12:37:59.748Z,100645.72
2022-10-14T12:39:20.343Z,100641.28
2022-10-14T12:40:25.265Z,100637.34
2022-10-14T12:41:40.411Z,100632.66
2022-10-14T12:43:02.742Z,100634.34
2022-10-14T12:44:07.788Z,100634.25
2022-10-14T12:45:19.603Z,100638.13
2022-10-14T12:46:23.523Z,100633.50
2022-10-14T12:47:31.771Z,100631.85
2022-10-14T12:48:36.814Z,100632.58
2022-10-14T12:49:38.952Z,100630.30
2022-10-14T12:50:44.252Z,100631.92
2022-10-14T12:51:54.516Z,100629.33
2022-10-14T12:53:00.906Z,100630.78
2022-10-14T12:54:08.173Z,100630.48
2022-10-14T12:55:17.198Z,100633.02
2022-10-14T12:56:29.588Z,100628.02
2022-10-14T12:57:36.239Z,100631.58
2022-10-14T12:58:44.249Z,100629.91
2022-10-14T12:59:49.852Z,100623.16
2022-10-14T13:00:59.373Z,100628.33